Time,TemperatureF,DewpointF,PressureIn,WindDirection,WindDirectionDegrees,WindSpeedMPH,WindSpeedGustMPH,Humidity,HourlyPrecipIn,Conditions,Clouds,dailyrainin,SoftwareType,DateUTC
2013-02-25 00:00:00,26.2,22.9,30.03,SE,135,0.0,0.0,87,0.00,,SKC,0.00,VWS V14.01,2013-02-25 06:00:00,
2013-02-25 00:01:00,26.3,22.7,30.03,SE,135,0.0,0.0,86,0.00,,SKC,0.00,VWS V14.01,2013-02-25 06:01:00,
2013-02-25 00:05:00,26.1,22.5,30.03,SE,134,0.0,0.0,86,0.00,,SKC,0.00,VWS V14.01,2013-02-25 06:05:00,
2013-02-25 00:06:00,26.2,22.3,30.03,SE,134,0.0,0.0,85,0.00,,SKC,0.00,VWS V14.01,2013-02-25 06:06:00,
2013-02-25 00:10:00,26.0,22.7,30.03,SE,134,0.0,0.0,87,0.00,,SKC,0.00,VWS V14.01,2013-02-25 06:10:00,
2013-02-25 00:11:00,26.2,22.3,30.03,SE,135,0.0,0.0,85,0.00,,SKC,0.00,VWS V14.01,2013-02-25 06:11:00,
2013-02-25 00:15:00,25.9,22.6,30.03,SE,135,0.0,0.0,87,0.00,,SKC,0.00,VWS V14.01,2013-02-25 06:15:00,
2013-02-25 00:16:00,26.3,22.1,30.03,SE,134,0.0,0.0,84,0.00,,SKC,0.00,VWS V14.01,2013-02-25 06:16:00,
2013-02-25 00:20:00,25.9,22.3,30.03,SE,135,0.0,0.0,86,0.00,,SKC,0.00,VWS V14.01,2013-02-25 06:20:00,
2013-02-25 00:21:00,26.3,22.4,30.03,SE,135,0.0,0.0,85,0.00,,SKC,0.00,VWS V14.01,2013-02-25 06:21:00,
2013-02-25 00:25:00,25.9,22.3,30.03,SE,134,0.0,0.0,86,0.00,,SKC,0.00,VWS V14.01,2013-02-25 06:25:00,
2013-02-25 00:26:00,26.2,22.9,30.03,SE,135,0.0,0.0,87,0.00,,SKC,0.00,VWS V14.01,2013-02-25 06:26:00,
2013-02-25 00:30:00,25.9,22.3,30.04,SE,134,0.0,0.0,86,0.00,,SKC,0.00,VWS V14.01,2013-02-25 06:30:00,
2013-02-25 00:31:00,26.1,22.5,30.03,SE,134,0.0,0.0,86,0.00,,SKC,0.00,VWS V14.01,2013-02-25 06:31:00,
2013-02-25 00:35:00,26.1,22.5,30.04,SE,134,0.0,0.0,86,0.00,,SKC,0.00,VWS V14.01,2013-02-25 06:35:00,
2013-02-25 00:36:00,26.1,22.5,30.03,SE,135,0.0,0.0,86,0.00,,SKC,0.00,VWS V14.01,2013-02-25 06:36:00,
2013-02-25 00:40:00,26.1,22.5,30.04,SE,135,0.0,0.0,86,0.00,,SKC,0.00,VWS V14.01,2013-02-25 06:40:00,
2013-02-25 00:41:00,26.0,22.1,30.03,SE,134,0.0,0.0,85,0.00,,SKC,0.00,VWS V14.01,2013-02-25 06:41:00,
2013-02-25 00:45:00,26.1,22.8,30.04,SE,135,0.0,0.0,87,0.00,,SKC,0.00,VWS V14.01,2013-02-25 06:45:00,
2013-02-25 00:46:00,26.2,22.3,30.03,SE,134,0.0,1.0,85,0.00,,SKC,0.00,VWS V14.01,2013-02-25 06:46:00,
2013-02-25 00:50:00,26.1,22.5,30.04,SE,134,0.0,0.0,86,0.00,,SKC,0.00,VWS V14.01,2013-02-25 06:50:00,
2013-02-25 00:51:00,26.2,22.3,30.03,SE,135,0.0,1.0,85,0.00,,SKC,0.00,VWS V14.01,2013-02-25 06:51:00,
2013-02-25 00:55:00,26.2,22.6,30.04,SE,134,0.0,0.0,86,0.00,,SKC,0.00,VWS V14.01,2013-02-25 06:55:00,
2013-02-25 00:56:00,26.3,22.7,30.03,SE,134,0.0,0.0,86,0.00,,SKC,0.00,VWS V14.01,2013-02-25 06:56:00,
2013-02-25 01:00:00,26.3,22.7,30.05,SE,135,0.0,0.0,86,0.00,,SKC,0.00,VWS V14.01,2013-02-25 07:00:00,
2013-02-25 01:01:00,26.2,22.9,30.03,SE,135,0.0,0.0,87,0.00,,SKC,0.00,VWS V14.01,2013-02-25 07:01:00,
2013-02-25 01:05:00,26.3,22.4,30.05,SE,135,0.0,0.0,85,0.00,,SKC,0.00,VWS V14.01,2013-02-25 07:05:00,
2013-02-25 01:06:00,26.1,22.5,30.03,SE,134,0.0,0.0,86,0.00,,SKC,0.00,VWS V14.01,2013-02-25 07:06:00,
2013-02-25 01:10:00,26.4,22.8,30.05,SE,135,0.0,0.0,86,0.00,,SKC,0.00,VWS V14.01,2013-02-25 07:10:00,
2013-02-25 01:11:00,26.0,22.4,30.03,SE,135,0.0,0.0,86,0.00,,SKC,0.00,VWS V14.01,2013-02-25 07:11:00,
2013-02-25 01:15:00,26.3,22.7,30.05,SE,134,0.0,0.0,86,0.00,,SKC,0.00,VWS V14.01,2013-02-25 07:15:00,
2013-02-25 01:16:00,26.0,22.7,30.03,SE,135,0.0,0.0,87,0.00,,SKC,0.00,VWS V14.01,2013-02-25 07:16:00,
2013-02-25 01:20:00,26.2,22.6,30.05,SE,134,0.0,0.0,86,0.00,,SKC,0.00,VWS V14.01,2013-02-25 07:20:00,
2013-02-25 01:21:00,25.9,22.3,30.03,SE,134,0.0,0.0,86,0.00,,SKC,0.00,VWS V14.01,2013-02-25 07:21:00,
2013-02-25 01:25:00,26.2,22.6,30.05,SE,135,0.0,0.0,86,0.00,,SKC,0.00,VWS V14.01,2013-02-25 07:25:00,
2013-02-25 01:26:00,25.9,22.3,30.03,SE,135,0.0,0.0,86,0.00,,SKC,0.00,VWS V14.01,2013-02-25 07:26:00,
2013-02-25 01:30:00,26.2,22.6,30.04,SE,135,0.0,0.0,86,0.00,,SKC,0.00,VWS V14.01,2013-02-25 07:30:00,
2013-02-25 01:31:00,25.9,22.3,30.04,SE,134,0.0,0.0,86,0.00,,SKC,0.00,VWS V14.01,2013-02-25 07:31:00,
2013-02-25 01:35:00,26.1,22.5,30.04,SE,134,0.0,0.0,86,0.00,,SKC,0.00,VWS V14.01,2013-02-25 07:35:00,
2013-02-25 01:36:00,26.1,22.5,30.04,SE,134,0.0,0.0,86,0.00,,SKC,0.00,VWS V14.01,2013-02-25 07:36:00,
2013-02-25 01:40:00,26.1,22.8,30.04,SE,134,0.0,0.0,87,0.00,,SKC,0.00,VWS V14.01,2013-02-25 07:40:00,
2013-02-25 01:41:00,26.1,22.5,30.04,SE,134,0.0,0.0,86,0.00,,SKC,0.00,VWS V14.01,2013-02-25 07:41:00,
2013-02-25 01:45:00,26.0,22.7,30.04,SE,134,0.0,0.0,87,0.00,,SKC,0.00,VWS V14.01,2013-02-25 07:45:00,
2013-02-25 01:46:00,26.1,22.8,30.04,SE,134,0.0,0.0,87,0.00,,SKC,0.00,VWS V14.01,2013-02-25 07:46:00,
2013-02-25 01:50:00,26.0,22.4,30.04,SE,135,0.0,0.0,86,0.00,,SKC,0.00,VWS V14.01,2013-02-25 07:50:00,
2013-02-25 01:51:00,26.1,22.5,30.04,SE,135,0.0,0.0,86,0.00,,SKC,0.00,VWS V14.01,2013-02-25 07:51:00,
2013-02-25 01:55:00,25.9,22.3,30.04,SE,135,0.0,0.0,86,0.00,,SKC,0.00,VWS V14.01,2013-02-25 07:55:00,
2013-02-25 01:56:00,26.2,22.6,30.04,SE,135,0.0,0.0,86,0.00,,SKC,0.00,VWS V14.01,2013-02-25 07:56:00,
2013-02-25 02:00:00,25.9,22.3,30.04,SE,135,0.0,0.0,86,0.00,,SKC,0.00,VWS V14.01,2013-02-25 08:00:00,
2013-02-25 02:01:00,26.3,22.7,30.05,SE,135,0.0,0.0,86,0.00,,SKC,0.00,VWS V14.01,2013-02-25 08:01:00,
2013-02-25 02:05:00,25.9,22.3,30.04,SE,134,0.0,0.0,86,0.00,,SKC,0.00,VWS V14.01,2013-02-25 08:05:00,
2013-02-25 02:06:00,26.3,22.4,30.05,SE,135,0.0,0.0,85,0.00,,SKC,0.00,VWS V14.01,2013-02-25 08:06:00,
2013-02-25 02:10:00,25.9,22.6,30.04,SE,135,0.0,0.0,87,0.00,,SKC,0.00,VWS V14.01,2013-02-25 08:10:00,
2013-02-25 02:12:00,26.4,22.5,30.05,SE,135,0.0,0.0,85,0.00,,SKC,0.00,VWS V14.01,2013-02-25 08:12:00,
2013-02-25 02:15:00,25.8,22.5,30.04,SE,135,0.0,0.0,87,0.00,,SKC,0.00,VWS V14.01,2013-02-25 08:15:00,
2013-02-25 02:17:00,26.3,22.7,30.05,SE,135,0.0,0.0,86,0.00,,SKC,0.00,VWS V14.01,2013-02-25 08:17:00,
2013-02-25 02:20:00,25.8,22.5,30.04,SE,134,0.0,0.0,87,0.00,,SKC,0.00,VWS V14.01,2013-02-25 08:20:00,
2013-02-25 02:22:00,26.3,22.7,30.05,SE,135,0.0,0.0,86,0.00,,SKC,0.00,VWS V14.01,2013-02-25 08:22:00,
2013-02-25 02:25:00,25.7,22.6,30.04,SE,135,0.0,0.0,88,0.00,,SKC,0.00,VWS V14.01,2013-02-25 08:25:00,
2013-02-25 02:27:00,26.2,22.6,30.05,SE,134,0.0,0.0,86,0.00,,SKC,0.00,VWS V14.01,2013-02-25 08:27:00,
2013-02-25 02:30:00,25.6,22.5,30.03,SE,134,0.0,0.0,88,0.00,,SKC,0.00,VWS V14.01,2013-02-25 08:30:00,
2013-02-25 02:32:00,26.2,22.6,30.04,SE,135,0.0,0.0,86,0.00,,SKC,0.00,VWS V14.01,2013-02-25 08:32:00,
2013-02-25 02:35:00,25.5,22.5,30.03,SE,134,0.0,0.0,88,0.00,,SKC,0.00,VWS V14.01,2013-02-25 08:35:00,
2013-02-25 02:37:00,26.2,22.6,30.04,SE,135,0.0,0.0,86,0.00,,SKC,0.00,VWS V14.01,2013-02-25 08:37:00,
2013-02-25 02:40:00,25.4,22.6,30.03,SE,135,0.0,0.0,89,0.00,,SKC,0.00,VWS V14.01,2013-02-25 08:40:00,
2013-02-25 02:42:00,26.1,22.8,30.04,SE,134,0.0,0.0,87,0.00,,SKC,0.00,VWS V14.01,2013-02-25 08:42:00,
2013-02-25 02:45:00,25.3,22.5,30.03,SE,135,0.0,0.0,89,0.00,,SKC,0.00,VWS V14.01,2013-02-25 08:45:00,
2013-02-25 02:47:00,26.0,22.7,30.04,SE,134,0.0,0.0,87,0.00,,SKC,0.00,VWS V14.01,2013-02-25 08:47:00,
2013-02-25 02:50:00,25.2,22.4,30.03,SE,134,0.0,0.0,89,0.00,,SKC,0.00,VWS V14.01,2013-02-25 08:50:00,
2013-02-25 02:52:00,26.0,22.4,30.04,SE,135,0.0,0.0,86,0.00,,SKC,0.00,VWS V14.01,2013-02-25 08:52:00,
2013-02-25 02:55:00,25.2,22.4,30.03,SE,135,0.0,0.0,89,0.00,,SKC,0.00,VWS V14.01,2013-02-25 08:55:00,
2013-02-25 02:57:00,25.9,22.3,30.04,SE,134,0.0,0.0,86,0.00,,SKC,0.00,VWS V14.01,2013-02-25 08:57:00,
2013-02-25 03:00:00,25.1,22.0,30.03,SE,134,0.0,0.0,88,0.00,,SKC,0.00,VWS V14.01,2013-02-25 09:00:00,
2013-02-25 03:02:00,25.9,22.3,30.04,SE,135,0.0,0.0,86,0.00,,SKC,0.00,VWS V14.01,2013-02-25 09:02:00,
2013-02-25 03:05:00,25.0,22.0,30.03,SE,134,0.0,0.0,88,0.00,,SKC,0.00,VWS V14.01,2013-02-25 09:05:00,
2013-02-25 03:07:00,25.9,22.3,30.04,SE,134,0.0,0.0,86,0.00,,SKC,0.00,VWS V14.01,2013-02-25 09:07:00,
2013-02-25 03:10:00,25.0,22.0,30.03,SE,134,0.0,0.0,88,0.00,,SKC,0.00,VWS V14.01,2013-02-25 09:10:00,
2013-02-25 03:12:00,25.9,22.6,30.04,SE,134,0.0,0.0,87,0.00,,SKC,0.00,VWS V14.01,2013-02-25 09:12:00,
2013-02-25 03:15:00,25.0,22.0,30.03,SE,134,0.0,0.0,88,0.00,,SKC,0.00,VWS V14.01,2013-02-25 09:15:00,
2013-02-25 03:17:00,25.8,22.5,30.04,SE,135,0.0,0.0,87,0.00,,SKC,0.00,VWS V14.01,2013-02-25 09:17:00,
2013-02-25 03:20:00,24.9,21.9,30.03,SE,135,0.0,0.0,88,0.00,,SKC,0.00,VWS V14.01,2013-02-25 09:20:00,
2013-02-25 03:22:00,25.8,22.5,30.04,SE,135,0.0,0.0,87,0.00,,SKC,0.00,VWS V14.01,2013-02-25 09:22:00,
2013-02-25 03:25:00,24.9,22.1,30.03,SE,135,0.0,0.0,89,0.00,,SKC,0.00,VWS V14.01,2013-02-25 09:25:00,
2013-02-25 03:27:00,25.7,22.6,30.04,SE,135,0.0,0.0,88,0.00,,SKC,0.00,VWS V14.01,2013-02-25 09:27:00,
2013-02-25 03:30:00,24.8,22.0,30.03,SE,134,0.0,0.0,89,0.00,,SKC,0.00,VWS V14.01,2013-02-25 09:30:00,
2013-02-25 03:32:00,25.6,22.5,30.03,SE,134,0.0,0.0,88,0.00,,SKC,0.00,VWS V14.01,2013-02-25 09:32:00,
2013-02-25 03:35:00,24.7,21.9,30.03,SE,135,0.0,0.0,89,0.00,,SKC,0.00,VWS V14.01,2013-02-25 09:35:00,
2013-02-25 03:37:00,25.5,22.5,30.03,SE,134,0.0,0.0,88,0.00,,SKC,0.00,VWS V14.01,2013-02-25 09:37:00,
2013-02-25 03:40:00,24.6,21.6,30.03,SE,135,0.0,0.0,88,0.00,,SKC,0.00,VWS V14.01,2013-02-25 09:40:00,
2013-02-25 03:42:00,25.4,22.6,30.03,SE,134,0.0,0.0,89,0.00,,SKC,0.00,VWS V14.01,2013-02-25 09:42:00,
2013-02-25 03:45:00,24.5,21.7,30.03,SE,135,0.0,0.0,89,0.00,,SKC,0.00,VWS V14.01,2013-02-25 09:45:00,
2013-02-25 03:47:00,25.3,22.5,30.03,SE,135,0.0,0.0,89,0.00,,SKC,0.00,VWS V14.01,2013-02-25 09:47:00,
2013-02-25 03:50:00,24.4,21.6,30.03,SE,135,0.0,0.0,89,0.00,,SKC,0.00,VWS V14.01,2013-02-25 09:50:00,
2013-02-25 03:52:00,25.2,22.4,30.03,SE,134,0.0,0.0,89,0.00,,SKC,0.00,VWS V14.01,2013-02-25 09:52:00,
2013-02-25 03:55:00,24.2,21.4,30.03,SE,134,0.0,0.0,89,0.00,,SKC,0.00,VWS V14.01,2013-02-25 09:55:00,
2013-02-25 03:57:00,25.2,22.4,30.03,SE,135,0.0,0.0,89,0.00,,SKC,0.00,VWS V14.01,2013-02-25 09:57:00,
2013-02-25 04:00:00,24.2,21.4,30.03,SE,135,0.0,0.0,89,0.00,,SKC,0.00,VWS V14.01,2013-02-25 10:00:00,
2013-02-25 04:02:00,25.1,22.0,30.03,SE,134,0.0,0.0,88,0.00,,SKC,0.00,VWS V14.01,2013-02-25 10:02:00,
2013-02-25 04:05:00,24.0,21.2,30.03,SE,134,0.0,0.0,89,0.00,,SKC,0.00,VWS V14.01,2013-02-25 10:05:00,
2013-02-25 04:07:00,25.0,22.0,30.03,SE,134,0.0,0.0,88,0.00,,SKC,0.00,VWS V14.01,2013-02-25 10:07:00,
2013-02-25 04:10:00,23.9,21.1,30.03,SE,134,0.0,0.0,89,0.00,,SKC,0.00,VWS V14.01,2013-02-25 10:10:00,
2013-02-25 04:12:00,25.0,22.0,30.03,SE,134,0.0,0.0,88,0.00,,SKC,0.00,VWS V14.01,2013-02-25 10:12:00,
2013-02-25 04:15:00,23.8,21.0,30.03,SE,134,0.0,0.0,89,0.00,,SKC,0.00,VWS V14.01,2013-02-25 10:15:00,
2013-02-25 04:17:00,25.0,22.0,30.03,SE,134,0.0,0.0,88,0.00,,SKC,0.00,VWS V14.01,2013-02-25 10:17:00,
2013-02-25 04:20:00,23.7,20.9,30.03,SE,134,0.0,0.0,89,0.00,,SKC,0.00,VWS V14.01,2013-02-25 10:20:00,
2013-02-25 04:22:00,24.9,21.9,30.03,SE,135,0.0,0.0,88,0.00,,SKC,0.00,VWS V14.01,2013-02-25 10:22:00,
2013-02-25 04:25:00,23.6,20.8,30.03,SE,134,0.0,0.0,89,0.00,,SKC,0.00,VWS V14.01,2013-02-25 10:25:00,
2013-02-25 04:27:00,24.9,22.1,30.03,SE,135,0.0,0.0,89,0.00,,SKC,0.00,VWS V14.01,2013-02-25 10:27:00,
2013-02-25 04:30:00,23.4,20.6,30.03,SE,134,0.0,0.0,89,0.00,,SKC,0.00,VWS V14.01,2013-02-25 10:30:00,
2013-02-25 04:32:00,24.8,22.0,30.03,SE,134,0.0,0.0,89,0.00,,SKC,0.00,VWS V14.01,2013-02-25 10:32:00,
2013-02-25 04:35:00,23.4,20.6,30.03,SE,134,0.0,0.0,89,0.00,,SKC,0.00,VWS V14.01,2013-02-25 10:35:00,
2013-02-25 04:37:00,24.7,21.9,30.03,SE,135,0.0,0.0,89,0.00,,SKC,0.00,VWS V14.01,2013-02-25 10:37:00,
2013-02-25 04:40:00,23.4,20.6,30.03,SE,134,0.0,0.0,89,0.00,,SKC,0.00,VWS V14.01,2013-02-25 10:40:00,
2013-02-25 04:42:00,24.6,21.6,30.03,SE,135,0.0,0.0,88,0.00,,SKC,0.00,VWS V14.01,2013-02-25 10:42:00,
2013-02-25 04:45:00,23.4,20.6,30.03,SE,134,0.0,0.0,89,0.00,,SKC,0.00,VWS V14.01,2013-02-25 10:45:00,
2013-02-25 04:47:00,24.5,21.7,30.03,SE,134,0.0,0.0,89,0.00,,SKC,0.00,VWS V14.01,2013-02-25 10:47:00,
2013-02-25 04:50:00,23.2,20.4,30.03,SE,135,0.0,0.0,89,0.00,,SKC,0.00,VWS V14.01,2013-02-25 10:50:00,
2013-02-25 04:52:00,24.4,21.6,30.03,SE,135,0.0,0.0,89,0.00,,SKC,0.00,VWS V14.01,2013-02-25 10:52:00,
2013-02-25 04:55:00,23.1,20.6,30.03,SE,135,0.0,0.0,90,0.00,,SKC,0.00,VWS V14.01,2013-02-25 10:55:00,
2013-02-25 04:57:00,24.2,21.4,30.03,SE,134,0.0,0.0,89,0.00,,SKC,0.00,VWS V14.01,2013-02-25 10:57:00,
2013-02-25 05:00:00,23.0,20.5,30.03,SE,134,0.0,0.0,90,0.00,,SKC,0.00,VWS V14.01,2013-02-25 11:00:00,
2013-02-25 05:02:00,24.2,21.4,30.03,SE,135,0.0,0.0,89,0.00,,SKC,0.00,VWS V14.01,2013-02-25 11:02:00,
2013-02-25 05:05:00,23.0,20.5,30.03,SE,135,0.0,0.0,90,0.00,,SKC,0.00,VWS V14.01,2013-02-25 11:05:00,
2013-02-25 05:07:00,24.0,21.2,30.03,SE,134,0.0,0.0,89,0.00,,SKC,0.00,VWS V14.01,2013-02-25 11:07:00,
2013-02-25 05:10:00,22.9,20.1,30.03,SE,134,0.0,0.0,89,0.00,,SKC,0.00,VWS V14.01,2013-02-25 11:10:00,
2013-02-25 05:12:00,23.9,21.1,30.03,SE,134,0.0,0.0,89,0.00,,SKC,0.00,VWS V14.01,2013-02-25 11:12:00,
2013-02-25 05:15:00,22.8,20.3,30.03,SE,134,0.0,0.0,90,0.00,,SKC,0.00,VWS V14.01,2013-02-25 11:15:00,
2013-02-25 05:17:00,23.8,21.0,30.03,SE,134,0.0,0.0,89,0.00,,SKC,0.00,VWS V14.01,2013-02-25 11:17:00,
2013-02-25 05:20:00,22.8,20.0,30.03,SE,134,0.0,0.0,89,0.00,,SKC,0.00,VWS V14.01,2013-02-25 11:20:00,
2013-02-25 05:22:00,23.7,20.9,30.03,SE,134,0.0,0.0,89,0.00,,SKC,0.00,VWS V14.01,2013-02-25 11:22:00,
2013-02-25 05:25:00,22.7,20.0,30.03,SE,135,0.0,0.0,89,0.00,,SKC,0.00,VWS V14.01,2013-02-25 11:25:00,
2013-02-25 05:27:00,23.6,20.8,30.03,SE,135,0.0,0.0,89,0.00,,SKC,0.00,VWS V14.01,2013-02-25 11:27:00,
2013-02-25 05:30:00,22.7,20.0,30.03,SE,134,0.0,0.0,89,0.00,,SKC,0.00,VWS V14.01,2013-02-25 11:30:00,
2013-02-25 05:32:00,23.4,20.6,30.03,SE,135,0.0,0.0,89,0.00,,SKC,0.00,VWS V14.01,2013-02-25 11:32:00,
2013-02-25 05:35:00,22.7,20.0,30.03,SE,135,0.0,0.0,89,0.00,,SKC,0.00,VWS V14.01,2013-02-25 11:35:00,
2013-02-25 05:37:00,23.4,20.6,30.03,SE,135,0.0,0.0,89,0.00,,SKC,0.00,VWS V14.01,2013-02-25 11:37:00,
2013-02-25 05:40:00,22.7,20.0,30.03,SE,135,0.0,0.0,89,0.00,,SKC,0.00,VWS V14.01,2013-02-25 11:40:00,
2013-02-25 05:42:00,23.4,20.6,30.03,SE,134,0.0,0.0,89,0.00,,SKC,0.00,VWS V14.01,2013-02-25 11:42:00,
2013-02-25 05:45:00,22.8,20.0,30.04,SE,134,0.0,0.0,89,0.00,,SKC,0.00,VWS V14.01,2013-02-25 11:45:00,
2013-02-25 05:47:00,23.4,20.6,30.03,SE,135,0.0,0.0,89,0.00,,SKC,0.00,VWS V14.01,2013-02-25 11:47:00,
2013-02-25 05:50:00,22.8,20.0,30.04,SE,134,0.0,0.0,89,0.00,,SKC,0.00,VWS V14.01,2013-02-25 11:50:00,
2013-02-25 05:52:00,23.2,20.5,30.03,SE,135,0.0,0.0,89,0.00,,SKC,0.00,VWS V14.01,2013-02-25 11:52:00,
2013-02-25 05:55:00,22.8,20.0,30.04,SE,134,0.0,0.0,89,0.00,,SKC,0.00,VWS V14.01,2013-02-25 11:55:00,
2013-02-25 05:57:00,23.1,20.6,30.03,SE,135,0.0,0.0,90,0.00,,SKC,0.00,VWS V14.01,2013-02-25 11:57:00,
2013-02-25 06:00:00,22.8,20.3,30.04,SE,134,0.0,0.0,90,0.00,,SKC,0.00,VWS V14.01,2013-02-25 12:00:00,
2013-02-25 06:02:00,23.0,20.5,30.03,SE,134,0.0,0.0,90,0.00,,SKC,0.00,VWS V14.01,2013-02-25 12:02:00,
2013-02-25 06:05:00,22.9,20.4,30.04,SE,134,0.0,0.0,90,0.00,,SKC,0.00,VWS V14.01,2013-02-25 12:05:00,
2013-02-25 06:07:00,23.0,20.5,30.03,SE,134,0.0,0.0,90,0.00,,SKC,0.00,VWS V14.01,2013-02-25 12:07:00,
2013-02-25 06:10:00,22.9,20.4,30.04,SE,135,0.0,0.0,90,0.00,,SKC,0.00,VWS V14.01,2013-02-25 12:10:00,
2013-02-25 06:12:00,22.9,20.1,30.03,SE,134,0.0,0.0,89,0.00,,SKC,0.00,VWS V14.01,2013-02-25 12:12:00,
2013-02-25 06:15:00,23.0,20.5,30.04,SE,134,0.0,0.0,90,0.00,,SKC,0.00,VWS V14.01,2013-02-25 12:15:00,
2013-02-25 06:17:00,22.8,20.3,30.03,SE,134,0.0,0.0,90,0.00,,SKC,0.00,VWS V14.01,2013-02-25 12:17:00,
2013-02-25 06:20:00,23.1,20.6,30.04,SE,134,0.0,0.0,90,0.00,,SKC,0.00,VWS V14.01,2013-02-25 12:20:00,
2013-02-25 06:22:00,22.7,20.0,30.03,SE,135,0.0,0.0,89,0.00,,SKC,0.00,VWS V14.01,2013-02-25 12:22:00,
2013-02-25 06:25:00,23.2,20.7,30.04,SE,135,0.0,0.0,90,0.00,,SKC,0.00,VWS V14.01,2013-02-25 12:25:00,
2013-02-25 06:27:00,22.7,20.0,30.03,SE,135,0.0,0.0,89,0.00,,SKC,0.00,VWS V14.01,2013-02-25 12:27:00,
2013-02-25 06:30:00,23.2,20.4,30.04,SE,134,0.0,0.0,89,0.00,,SKC,0.00,VWS V14.01,2013-02-25 12:30:00,
2013-02-25 06:32:00,22.7,20.0,30.03,SE,135,0.0,0.0,89,0.00,,SKC,0.00,VWS V14.01,2013-02-25 12:32:00,
2013-02-25 06:35:00,23.4,20.6,30.04,SE,134,0.0,0.0,89,0.00,,SKC,0.00,VWS V14.01,2013-02-25 12:35:00,
2013-02-25 06:37:00,22.7,20.0,30.03,SE,135,0.0,0.0,89,0.00,,SKC,0.00,VWS V14.01,2013-02-25 12:37:00,
2013-02-25 06:40:00,23.5,20.7,30.04,SE,135,0.0,0.0,89,0.00,,SKC,0.00,VWS V14.01,2013-02-25 12:40:00,
2013-02-25 06:42:00,22.8,20.0,30.03,SE,135,0.0,0.0,89,0.00,,SKC,0.00,VWS V14.01,2013-02-25 12:42:00,
2013-02-25 06:45:00,23.7,20.9,30.05,SE,134,0.0,0.0,89,0.00,,SKC,0.00,VWS V14.01,2013-02-25 12:45:00,
2013-02-25 06:48:00,22.8,20.0,30.04,SE,135,0.0,0.0,89,0.00,,SKC,0.00,VWS V14.01,2013-02-25 12:48:00,
2013-02-25 06:50:00,23.8,21.0,30.05,SE,135,0.0,0.0,89,0.00,,SKC,0.00,VWS V14.01,2013-02-25 12:50:00,
2013-02-25 06:53:00,22.8,20.0,30.04,SE,134,0.0,0.0,89,0.00,,SKC,0.00,VWS V14.01,2013-02-25 12:53:00,
2013-02-25 06:55:00,24.0,21.0,30.05,SE,135,0.0,0.0,88,0.00,,SKC,0.00,VWS V14.01,2013-02-25 12:55:00,
2013-02-25 06:58:00,22.8,20.3,30.04,SE,135,0.0,0.0,90,0.00,,SKC,0.00,VWS V14.01,2013-02-25 12:58:00,
2013-02-25 07:00:00,24.2,21.2,30.05,SE,134,0.0,0.0,88,0.00,,SKC,0.00,VWS V14.01,2013-02-25 13:00:00,
2013-02-25 07:03:00,22.9,20.1,30.04,SE,135,0.0,0.0,89,0.00,,SKC,0.00,VWS V14.01,2013-02-25 13:03:00,
2013-02-25 07:05:00,24.4,21.4,30.05,SE,134,0.0,0.0,88,0.00,,SKC,0.00,VWS V14.01,2013-02-25 13:05:00,
2013-02-25 07:08:00,22.9,20.4,30.04,SE,134,0.0,0.0,90,0.00,,SKC,0.00,VWS V14.01,2013-02-25 13:08:00,
2013-02-25 07:10:00,24.7,21.4,30.05,SE,139,0.0,0.0,87,0.00,,SKC,0.00,VWS V14.01,2013-02-25 13:10:00,
2013-02-25 07:13:00,22.9,20.1,30.04,SE,135,0.0,0.0,89,0.00,,SKC,0.00,VWS V14.01,2013-02-25 13:13:00,
2013-02-25 07:15:00,24.9,21.6,30.06,SE,138,0.0,0.0,87,0.00,,SKC,0.00,VWS V14.01,2013-02-25 13:15:00,
2013-02-25 07:18:00,23.0,20.5,30.04,SE,134,0.0,0.0,90,0.00,,SKC,0.00,VWS V14.01,2013-02-25 13:18:00,
2013-02-25 07:20:00,25.3,22.0,30.06,SE,139,0.0,0.0,87,0.00,,SKC,0.00,VWS V14.01,2013-02-25 13:20:00,
2013-02-25 07:23:00,23.1,20.6,30.04,SE,134,0.0,0.0,90,0.00,,SKC,0.00,VWS V14.01,2013-02-25 13:23:00,
2013-02-25 07:25:00,25.7,22.1,30.06,SE,138,0.0,0.0,86,0.00,,SKC,0.00,VWS V14.01,2013-02-25 13:25:00,
2013-02-25 07:28:00,23.2,20.7,30.04,SE,135,0.0,0.0,90,0.00,,SKC,0.00,VWS V14.01,2013-02-25 13:28:00,
2013-02-25 07:30:00,26.1,22.5,30.06,SE,138,0.0,0.0,86,0.00,,SKC,0.00,VWS V14.01,2013-02-25 13:30:00,
2013-02-25 07:33:00,23.3,20.5,30.04,SE,134,0.0,0.0,89,0.00,,SKC,0.00,VWS V14.01,2013-02-25 13:33:00,
2013-02-25 07:35:00,26.4,22.2,30.06,SE,139,0.0,0.0,84,0.00,,SKC,0.00,VWS V14.01,2013-02-25 13:35:00,
2013-02-25 07:38:00,23.4,20.6,30.04,SE,135,0.0,0.0,89,0.00,,SKC,0.00,VWS V14.01,2013-02-25 13:38:00,
2013-02-25 07:40:00,26.5,22.3,30.06,SE,139,0.0,0.0,84,0.00,,SKC,0.00,VWS V14.01,2013-02-25 13:40:00,
2013-02-25 07:43:00,23.5,20.7,30.04,SE,135,0.0,0.0,89,0.00,,SKC,0.00,VWS V14.01,2013-02-25 13:43:00,
2013-02-25 07:45:00,26.6,22.4,30.05,SE,139,0.0,0.0,84,0.00,,SKC,0.00,VWS V14.01,2013-02-25 13:45:00,
2013-02-25 07:48:00,23.7,20.9,30.05,SE,134,0.0,0.0,89,0.00,,SKC,0.00,VWS V14.01,2013-02-25 13:48:00,
2013-02-25 07:50:00,26.7,22.5,30.05,SE,137,0.0,0.0,84,0.00,,SKC,0.00,VWS V14.01,2013-02-25 13:50:00,
2013-02-25 07:53:00,23.9,21.1,30.05,SE,135,0.0,0.0,89,0.00,,SKC,0.00,VWS V14.01,2013-02-25 13:53:00,
2013-02-25 07:55:00,26.9,22.7,30.05,SE,133,0.0,0.0,84,0.00,,SKC,0.00,VWS V14.01,2013-02-25 13:55:00,
2013-02-25 07:58:00,24.1,21.1,30.05,SE,134,0.0,0.0,88,0.00,,SKC,0.00,VWS V14.01,2013-02-25 13:58:00,
2013-02-25 08:00:00,27.4,22.9,30.05,SE,134,0.0,0.0,83,0.00,,SKC,0.00,VWS V14.01,2013-02-25 14:00:00,
2013-02-25 08:03:00,24.2,21.2,30.05,SE,134,0.0,0.0,88,0.00,,SKC,0.00,VWS V14.01,2013-02-25 14:03:00,
2013-02-25 08:05:00,27.8,23.0,30.05,SE,133,0.0,0.0,82,0.00,,SKC,0.00,VWS V14.01,2013-02-25 14:05:00,
2013-02-25 08:08:00,24.5,21.5,30.05,SE,138,0.0,0.0,88,0.00,,SKC,0.00,VWS V14.01,2013-02-25 14:08:00,
2013-02-25 08:10:00,28.0,23.2,30.05,SE,133,0.0,0.0,82,0.00,,SKC,0.00,VWS V14.01,2013-02-25 14:10:00,
2013-02-25 08:13:00,24.8,21.5,30.05,SE,139,0.0,0.0,87,0.00,,SKC,0.00,VWS V14.01,2013-02-25 14:13:00,
2013-02-25 08:15:00,28.3,23.5,30.05,SE,133,0.0,0.0,82,0.00,,SKC,0.00,VWS V14.01,2013-02-25 14:15:00,
2013-02-25 08:18:00,25.0,21.7,30.06,SE,138,0.0,0.0,87,0.00,,SKC,0.00,VWS V14.01,2013-02-25 14:18:00,
2013-02-25 08:20:00,28.7,23.6,30.05,SSE,168,0.0,0.0,81,0.00,,SKC,0.00,VWS V14.01,2013-02-25 14:20:00,
2013-02-25 08:23:00,25.4,22.1,30.06,SE,139,0.0,0.0,87,0.00,,SKC,0.00,VWS V14.01,2013-02-25 14:23:00,
2013-02-25 08:25:00,29.0,23.3,30.05,WSW,244,0.0,0.0,79,0.00,,SKC,0.00,VWS V14.01,2013-02-25 14:25:00,
2013-02-25 08:28:00,25.8,22.2,30.06,SE,138,0.0,0.0,86,0.00,,SKC,0.00,VWS V14.01,2013-02-25 14:28:00,
2013-02-25 08:30:00,29.0,23.3,30.04,ESE,110,0.0,0.0,79,0.00,,SKC,0.00,VWS V14.01,2013-02-25 14:30:00,
2013-02-25 08:33:00,26.3,22.7,30.06,SE,138,0.0,0.0,86,0.00,,SKC,0.00,VWS V14.01,2013-02-25 14:33:00,
2013-02-25 08:35:00,29.2,23.5,30.04,ESE,110,0.0,0.0,79,0.00,,SKC,0.00,VWS V14.01,2013-02-25 14:35:00,
2013-02-25 08:38:00,26.4,22.2,30.06,SE,139,0.0,0.0,84,0.00,,SKC,0.00,VWS V14.01,2013-02-25 14:38:00,
2013-02-25 08:40:00,29.1,23.7,30.04,ESE,110,0.0,0.0,80,0.00,,SKC,0.00,VWS V14.01,2013-02-25 14:40:00,
2013-02-25 08:43:00,26.6,22.4,30.06,SE,138,0.0,0.0,84,0.00,,SKC,0.00,VWS V14.01,2013-02-25 14:43:00,
2013-02-25 08:45:00,29.1,23.4,30.04,East,92,0.0,0.0,79,0.00,,SKC,0.00,VWS V14.01,2013-02-25 14:45:00,
2013-02-25 08:48:00,26.7,22.5,30.05,SE,138,0.0,0.0,84,0.00,,SKC,0.00,VWS V14.01,2013-02-25 14:48:00,
2013-02-25 08:50:00,29.3,23.9,30.04,East,92,0.0,0.0,80,0.00,,SKC,0.00,VWS V14.01,2013-02-25 14:50:00,
2013-02-25 08:53:00,26.8,22.6,30.05,SE,137,0.0,0.0,84,0.00,,SKC,0.00,VWS V14.01,2013-02-25 14:53:00,
2013-02-25 08:55:00,29.8,24.1,30.04,SSE,161,0.0,0.0,79,0.00,,SKC,0.00,VWS V14.01,2013-02-25 14:55:00,
2013-02-25 08:58:00,27.0,22.8,30.05,SE,134,0.0,0.0,84,0.00,,SKC,0.00,VWS V14.01,2013-02-25 14:58:00,
2013-02-25 09:00:00,30.2,24.2,30.04,ESE,119,0.0,0.0,78,0.00,,SKC,0.00,VWS V14.01,2013-02-25 15:00:00,
2013-02-25 09:03:00,27.7,23.5,30.05,SE,133,0.0,0.0,84,0.00,,SKC,0.00,VWS V14.01,2013-02-25 15:03:00,
2013-02-25 09:05:00,30.4,24.1,30.04,SE,136,0.0,0.0,77,0.00,,SKC,0.00,VWS V14.01,2013-02-25 15:05:00,
2013-02-25 09:08:00,27.9,23.4,30.05,SE,133,0.0,0.0,83,0.00,,SKC,0.00,VWS V14.01,2013-02-25 15:08:00,
2013-02-25 09:10:00,30.5,24.2,30.04,SE,138,1.0,2.0,77,0.00,,SKC,0.00,VWS V14.01,2013-02-25 15:10:00,
2013-02-25 09:13:00,28.0,23.2,30.05,SE,133,0.0,0.0,82,0.00,,SKC,0.00,VWS V14.01,2013-02-25 15:13:00,
2013-02-25 09:15:00,30.5,24.2,30.05,WSW,245,0.0,3.0,77,0.00,,SKC,0.00,VWS V14.01,2013-02-25 15:15:00,
2013-02-25 09:18:00,28.5,23.7,30.05,SE,133,0.0,0.0,82,0.00,,SKC,0.00,VWS V14.01,2013-02-25 15:18:00,
2013-02-25 09:20:00,30.9,24.9,30.05,SW,221,2.0,3.0,78,0.00,,SKC,0.00,VWS V14.01,2013-02-25 15:20:00,
2013-02-25 09:23:00,28.8,23.4,30.05,SSE,168,0.0,0.0,80,0.00,,SKC,0.00,VWS V14.01,2013-02-25 15:23:00,
2013-02-25 09:25:00,31.0,24.6,30.05,SW,227,2.0,4.0,77,0.00,,SKC,0.00,VWS V14.01,2013-02-25 15:25:00,
2013-02-25 09:29:00,29.0,23.6,30.05,WSW,246,0.0,0.0,80,0.00,,SKC,0.00,VWS V14.01,2013-02-25 15:29:00,
2013-02-25 09:30:00,31.0,24.6,30.05,SW,222,2.0,4.0,77,0.00,,SKC,0.00,VWS V14.01,2013-02-25 15:30:00,
2013-02-25 09:34:00,29.0,23.3,30.04,ESE,110,0.0,0.0,79,0.00,,SKC,0.00,VWS V14.01,2013-02-25 15:34:00,
2013-02-25 09:35:00,31.0,25.0,30.05,SSE,157,0.0,4.0,78,0.00,,SKC,0.00,VWS V14.01,2013-02-25 15:35:00,
2013-02-25 09:39:00,29.2,23.5,30.04,ESE,111,0.0,0.0,79,0.00,,SKC,0.00,VWS V14.01,2013-02-25 15:39:00,
2013-02-25 09:40:00,31.2,25.1,30.05,South,171,1.0,3.0,78,0.00,,SKC,0.00,VWS V14.01,2013-02-25 15:40:00,
2013-02-25 09:44:00,29.1,23.7,30.04,East,94,0.0,0.0,80,0.00,,SKC,0.00,VWS V14.01,2013-02-25 15:44:00,
2013-02-25 09:45:00,31.2,25.1,30.05,SSE,156,2.0,4.0,78,0.00,,SKC,0.00,VWS V14.01,2013-02-25 15:45:00,
2013-02-25 09:49:00,29.1,23.7,30.04,East,92,0.0,0.0,80,0.00,,SKC,0.00,VWS V14.01,2013-02-25 15:49:00,
2013-02-25 09:50:00,31.3,25.2,30.05,SE,134,2.0,4.0,78,0.00,,SKC,0.00,VWS V14.01,2013-02-25 15:50:00,
2013-02-25 09:54:00,29.5,24.1,30.04,SSW,197,0.0,0.0,80,0.00,,SKC,0.00,VWS V14.01,2013-02-25 15:54:00,
2013-02-25 09:55:00,31.2,25.1,30.05,ESE,115,0.0,4.0,78,0.00,,SKC,0.00,VWS V14.01,2013-02-25 15:55:00,
2013-02-25 09:59:00,30.0,24.0,30.04,SSE,159,0.0,0.0,78,0.00,,SKC,0.00,VWS V14.01,2013-02-25 15:59:00,
2013-02-25 10:00:00,31.4,25.4,30.04,SW,217,1.0,3.0,78,0.00,,SKC,0.00,VWS V14.01,2013-02-25 16:00:00,
2013-02-25 10:04:00,30.3,24.0,30.04,SE,136,0.0,0.0,77,0.00,,SKC,0.00,VWS V14.01,2013-02-25 16:04:00,
2013-02-25 10:05:00,31.4,25.4,30.04,SSE,156,1.0,4.0,78,0.00,,SKC,0.00,VWS V14.01,2013-02-25 16:05:00,
2013-02-25 10:09:00,30.5,24.2,30.04,SE,134,0.0,0.0,77,0.00,,SKC,0.00,VWS V14.01,2013-02-25 16:09:00,
2013-02-25 10:10:00,31.4,25.4,30.04,ESE,116,1.0,3.0,78,0.00,,SKC,0.00,VWS V14.01,2013-02-25 16:10:00,
2013-02-25 10:14:00,30.6,24.3,30.04,ESE,109,3.0,3.0,77,0.00,,SKC,0.00,VWS V14.01,2013-02-25 16:14:00,
2013-02-25 10:15:00,31.5,25.4,30.04,ESE,102,3.0,4.0,78,0.00,,SKC,0.00,VWS V14.01,2013-02-25 16:15:00,
2013-02-25 10:19:00,30.6,24.6,30.05,ESE,118,1.0,3.0,78,0.00,,SKC,0.00,VWS V14.01,2013-02-25 16:19:00,
2013-02-25 10:20:00,31.6,25.2,30.04,ESE,119,3.0,4.0,77,0.00,,SKC,0.00,VWS V14.01,2013-02-25 16:20:00,
2013-02-25 10:24:00,31.0,24.6,30.05,SW,219,0.0,2.0,77,0.00,,SKC,0.00,VWS V14.01,2013-02-25 16:24:00,
2013-02-25 10:25:00,31.6,25.2,30.04,SE,134,1.0,4.0,77,0.00,,SKC,0.00,VWS V14.01,2013-02-25 16:25:00,
2013-02-25 10:29:00,31.0,24.6,30.05,SE,144,2.0,3.0,77,0.00,,SKC,0.00,VWS V14.01,2013-02-25 16:29:00,
2013-02-25 10:30:00,31.8,25.7,30.04,SE,146,1.0,3.0,78,0.00,,SKC,0.00,VWS V14.01,2013-02-25 16:30:00,
2013-02-25 10:34:00,31.0,24.6,30.05,SSE,156,2.0,3.0,77,0.00,,SKC,0.00,VWS V14.01,2013-02-25 16:34:00,
2013-02-25 10:35:00,32.0,25.6,30.04,SE,144,1.0,3.0,77,0.00,,SKC,0.00,VWS V14.01,2013-02-25 16:35:00,
2013-02-25 10:39:00,31.1,25.0,30.05,SE,128,2.0,2.0,78,0.00,,SKC,0.00,VWS V14.01,2013-02-25 16:39:00,
2013-02-25 10:40:00,32.2,25.8,30.04,SW,230,2.0,3.0,77,0.00,,SKC,0.00,VWS V14.01,2013-02-25 16:40:00,
2013-02-25 10:44:00,31.2,25.1,30.05,ESE,121,3.0,4.0,78,0.00,,SKC,0.00,VWS V14.01,2013-02-25 16:44:00,
2013-02-25 10:45:00,32.0,25.3,30.04,SSW,205,0.0,4.0,76,0.00,,SKC,0.00,VWS V14.01,2013-02-25 16:45:00,
2013-02-25 10:49:00,31.2,24.8,30.05,South,175,0.0,3.0,77,0.00,,SKC,0.00,VWS V14.01,2013-02-25 16:49:00,
2013-02-25 10:50:00,32.1,25.7,30.04,SSE,165,2.0,3.0,77,0.00,,SKC,0.00,VWS V14.01,2013-02-25 16:50:00,
2013-02-25 10:54:00,31.3,25.2,30.05,ESE,120,4.0,4.0,78,0.00,,SKC,0.00,VWS V14.01,2013-02-25 16:54:00,
2013-02-25 10:55:00,32.2,25.5,30.04,SE,131,1.0,5.0,76,0.00,,SKC,0.00,VWS V14.01,2013-02-25 16:55:00,
2013-02-25 10:59:00,31.3,25.2,30.05,ESE,123,2.0,3.0,78,0.00,,SKC,0.00,VWS V14.01,2013-02-25 16:59:00,
2013-02-25 11:00:00,32.3,25.6,30.04,SSE,159,2.0,4.0,76,0.00,,SKC,0.00,VWS V14.01,2013-02-25 17:00:00,
2013-02-25 11:04:00,31.4,25.4,30.04,ESE,123,3.0,4.0,78,0.00,,SKC,0.00,VWS V14.01,2013-02-25 17:04:00,
2013-02-25 11:05:00,32.3,25.6,30.04,ESE,115,2.0,3.0,76,0.00,,SKC,0.00,VWS V14.01,2013-02-25 17:05:00,
2013-02-25 11:09:00,31.4,25.4,30.04,ESE,123,3.0,3.0,78,0.00,,SKC,0.00,VWS V14.01,2013-02-25 17:09:00,
2013-02-25 11:10:00,32.3,25.6,30.04,ESE,121,1.0,3.0,76,0.00,,SKC,0.00,VWS V14.01,2013-02-25 17:10:00,
2013-02-25 11:14:00,31.5,25.4,30.04,East,96,3.0,4.0,78,0.00,,SKC,0.00,VWS V14.01,2013-02-25 17:14:00,
2013-02-25 11:15:00,32.5,25.8,30.02,West,263,0.0,2.0,76,0.00,,SKC,0.00,VWS V14.01,2013-02-25 17:15:00,
2013-02-25 11:19:00,31.5,25.4,30.04,SE,126,2.0,4.0,78,0.00,,SKC,0.00,VWS V14.01,2013-02-25 17:19:00,
2013-02-25 11:20:00,32.6,25.9,30.02,WSW,241,1.0,2.0,76,0.00,,SKC,0.00,VWS V14.01,2013-02-25 17:20:00,
2013-02-25 11:24:00,31.6,25.2,30.04,SE,126,2.0,4.0,77,0.00,,SKC,0.00,VWS V14.01,2013-02-25 17:24:00,
2013-02-25 11:25:00,32.5,25.5,30.02,West,265,1.0,3.0,75,0.00,,SKC,0.00,VWS V14.01,2013-02-25 17:25:00,
2013-02-25 11:29:00,31.6,25.5,30.04,ESE,123,2.0,2.0,78,0.00,,SKC,0.00,VWS V14.01,2013-02-25 17:29:00,
2013-02-25 11:30:00,32.6,25.9,30.02,SSW,209,1.0,3.0,76,0.00,,SKC,0.00,VWS V14.01,2013-02-25 17:30:00,
2013-02-25 11:34:00,31.9,25.5,30.04,SSW,194,1.0,3.0,77,0.00,,SKC,0.00,VWS V14.01,2013-02-25 17:34:00,
2013-02-25 11:35:00,32.8,25.8,30.02,SSE,158,1.0,2.0,75,0.00,,SKC,0.00,VWS V14.01,2013-02-25 17:35:00,
2013-02-25 11:39:00,32.0,25.6,30.04,ESE,119,1.0,2.0,77,0.00,,SKC,0.00,VWS V14.01,2013-02-25 17:39:00,
2013-02-25 11:40:00,32.8,25.8,30.02,West,263,2.0,3.0,75,0.00,,SKC,0.00,VWS V14.01,2013-02-25 17:40:00,
2013-02-25 11:44:00,32.1,25.4,30.04,SE,142,3.0,4.0,76,0.00,,SKC,0.00,VWS V14.01,2013-02-25 17:44:00,
2013-02-25 11:45:00,32.8,25.8,30.02,SE,144,0.0,3.0,75,0.00,,SKC,0.00,VWS V14.01,2013-02-25 17:45:00,
2013-02-25 11:49:00,32.0,25.6,30.04,WSW,246,1.0,2.0,77,0.00,,SKC,0.00,VWS V14.01,2013-02-25 17:49:00,
2013-02-25 11:50:00,32.7,25.7,30.02,SSE,160,3.0,3.0,75,0.00,,SKC,0.00,VWS V14.01,2013-02-25 17:50:00,
2013-02-25 11:54:00,32.2,25.8,30.04,SE,132,1.0,5.0,77,0.00,,SKC,0.00,VWS V14.01,2013-02-25 17:54:00,
2013-02-25 11:55:00,32.7,25.7,30.02,SE,126,2.0,4.0,75,0.00,,SKC,0.00,VWS V14.01,2013-02-25 17:55:00,
2013-02-25 11:59:00,32.3,25.6,30.04,WSW,249,2.0,4.0,76,0.00,,SKC,0.00,VWS V14.01,2013-02-25 17:59:00,
2013-02-25 12:00:00,32.7,26.0,30.02,SSW,199,1.0,3.0,76,0.00,,SKC,0.00,VWS V14.01,2013-02-25 18:00:00,
2013-02-25 12:04:00,32.3,25.9,30.04,SE,126,2.0,3.0,77,0.00,,SKC,0.00,VWS V14.01,2013-02-25 18:04:00,
2013-02-25 12:05:00,32.6,25.9,30.02,SSE,149,3.0,3.0,76,0.00,,SKC,0.00,VWS V14.01,2013-02-25 18:05:00,
2013-02-25 12:09:00,32.3,25.9,30.04,ESE,119,3.0,3.0,77,0.00,,SKC,0.00,VWS V14.01,2013-02-25 18:09:00,
2013-02-25 12:10:00,32.4,26.0,30.02,ESE,122,1.0,3.0,77,0.00,,SKC,0.00,VWS V14.01,2013-02-25 18:10:00,
2013-02-25 12:14:00,32.4,26.0,30.04,SSW,202,0.0,2.0,77,0.00,,SKC,0.00,VWS V14.01,2013-02-25 18:14:00,
2013-02-25 12:15:00,32.3,25.9,30.02,SE,125,1.0,3.0,77,0.00,,SKC,0.00,VWS V14.01,2013-02-25 18:15:00,
2013-02-25 12:19:00,32.6,25.9,30.02,SW,234,0.0,2.0,76,0.00,,SKC,0.00,VWS V14.01,2013-02-25 18:19:00,
2013-02-25 12:20:00,32.2,25.8,30.02,SE,132,0.0,2.0,77,0.00,,SKC,0.00,VWS V14.01,2013-02-25 18:20:00,
2013-02-25 12:24:00,32.5,25.8,30.02,SW,218,1.0,3.0,76,0.00,,SKC,0.00,VWS V14.01,2013-02-25 18:24:00,
2013-02-25 12:25:00,32.4,26.0,30.02,SSW,211,0.0,5.0,77,0.00,,SKC,0.00,VWS V14.01,2013-02-25 18:25:00,
2013-02-25 12:29:00,32.4,25.4,30.02,SW,224,0.0,3.0,75,0.00,,SKC,0.00,VWS V14.01,2013-02-25 18:29:00,
2013-02-25 12:30:00,32.6,26.2,30.01,SSE,156,1.0,2.0,77,0.00,,SKC,0.00,VWS V14.01,2013-02-25 18:30:00,
2013-02-25 12:34:00,32.7,26.0,30.02,South,180,0.0,1.0,76,0.00,,SKC,0.00,VWS V14.01,2013-02-25 18:34:00,
2013-02-25 12:35:00,32.7,26.6,30.01,SSW,199,0.0,1.0,78,0.00,,SKC,0.00,VWS V14.01,2013-02-25 18:35:00,
2013-02-25 12:39:00,32.8,25.8,30.02,South,176,0.0,3.0,75,0.00,,SKC,0.00,VWS V14.01,2013-02-25 18:39:00,
2013-02-25 12:40:00,32.7,26.6,30.01,SE,129,0.0,2.0,78,0.00,,SKC,0.00,VWS V14.01,2013-02-25 18:40:00,
2013-02-25 12:44:00,32.8,25.8,30.02,SW,226,2.0,3.0,75,0.00,,SKC,0.00,VWS V14.01,2013-02-25 18:44:00,
2013-02-25 12:45:00,32.5,26.4,30.00,SE,134,0.0,3.0,78,0.00,,SKC,0.00,VWS V14.01,2013-02-25 18:45:00,
2013-02-25 12:50:00,32.8,25.8,30.02,SE,144,1.0,2.0,75,0.00,,SKC,0.00,VWS V14.01,2013-02-25 18:50:00,
2013-02-25 12:55:00,32.7,25.7,30.02,ESE,122,2.0,3.0,75,0.00,,SKC,0.00,VWS V14.01,2013-02-25 18:55:00,
2013-02-25 13:00:00,32.6,25.6,30.02,South,191,0.0,2.0,75,0.00,,SKC,0.00,VWS V14.01,2013-02-25 19:00:00,
2013-02-25 13:05:00,32.7,26.0,30.02,SE,126,2.0,3.0,76,0.00,,SKC,0.00,VWS V14.01,2013-02-25 19:05:00,
2013-02-25 13:10:00,32.5,25.8,30.02,SE,134,0.0,3.0,76,0.00,,SKC,0.00,VWS V14.01,2013-02-25 19:10:00,
2013-02-25 13:15:00,32.4,26.0,30.02,ESE,109,3.0,3.0,77,0.00,,SKC,0.00,VWS V14.01,2013-02-25 19:15:00,
2013-02-25 13:20:00,32.2,25.8,30.02,SE,131,0.0,2.0,77,0.00,,SKC,0.00,VWS V14.01,2013-02-25 19:20:00,
2013-02-25 13:25:00,32.4,26.0,30.02,SSW,209,1.0,3.0,77,0.00,,SKC,0.00,VWS V14.01,2013-02-25 19:25:00,
2013-02-25 13:30:00,32.5,26.4,30.02,South,172,1.0,1.0,78,0.00,,SKC,0.00,VWS V14.01,2013-02-25 19:30:00,
2013-02-25 13:35:00,32.7,26.3,30.01,SW,229,0.0,1.0,77,0.00,,SKC,0.00,VWS V14.01,2013-02-25 19:35:00,
2013-02-25 13:40:00,32.7,26.6,30.01,SSW,197,0.0,2.0,78,0.00,,SKC,0.00,VWS V14.01,2013-02-25 19:40:00,
2013-02-25 13:45:00,32.6,26.5,30.01,SE,146,1.0,3.0,78,0.00,,SKC,0.00,VWS V14.01,2013-02-25 19:45:00,
2013-02-25 13:50:00,32.5,26.4,30.00,SW,218,2.0,2.0,78,0.00,,SKC,0.00,VWS V14.01,2013-02-25 19:50:00,
2013-02-25 13:55:00,32.4,26.3,30.00,ESE,119,0.0,2.0,78,0.00,,SKC,0.00,VWS V14.01,2013-02-25 19:55:00,
2013-02-25 14:00:00,32.4,26.6,30.00,SW,217,1.0,2.0,79,0.00,,SKC,0.00,VWS V14.01,2013-02-25 20:00:00,
2013-02-25 14:05:00,32.4,26.6,30.01,SE,144,0.0,1.0,79,0.00,,SKC,0.00,VWS V14.01,2013-02-25 20:05:00,
2013-02-25 14:10:00,32.5,26.7,30.01,SSE,155,0.0,1.0,79,0.00,,SKC,0.00,VWS V14.01,2013-02-25 20:10:00,
2013-02-25 14:15:00,32.6,26.8,30.01,SW,226,0.0,1.0,79,0.00,,SKC,0.00,VWS V14.01,2013-02-25 20:15:00,
2013-02-25 14:20:00,32.6,26.8,30.00,SE,136,0.0,1.0,79,0.00,,SKC,0.00,VWS V14.01,2013-02-25 20:20:00,
2013-02-25 14:25:00,32.5,26.7,30.00,WSW,253,0.0,1.0,79,0.00,,SKC,0.00,VWS V14.01,2013-02-25 20:25:00,
2013-02-25 14:30:00,32.5,26.7,30.00,SE,125,1.0,1.0,79,0.00,,SKC,0.00,VWS V14.01,2013-02-25 20:30:00,
2013-02-25 14:35:00,32.4,26.6,30.00,SW,223,0.0,1.0,79,0.00,,SKC,0.00,VWS V14.01,2013-02-25 20:35:00,
2013-02-25 14:40:00,32.5,26.7,30.00,East,96,1.0,3.0,79,0.00,,SKC,0.00,VWS V14.01,2013-02-25 20:40:00,
2013-02-25 14:45:00,32.4,26.9,30.00,East,88,0.0,0.0,80,0.00,,SKC,0.00,VWS V14.01,2013-02-25 20:45:00,
2013-02-25 14:50:00,32.7,26.9,30.00,SE,141,1.0,1.0,79,0.00,,SKC,0.00,VWS V14.01,2013-02-25 20:50:00,
2013-02-25 14:55:00,32.9,27.1,30.00,SSW,199,0.0,0.0,79,0.00,,SKC,0.00,VWS V14.01,2013-02-25 20:55:00,
2013-02-25 15:00:00,33.0,26.9,30.00,South,179,0.0,2.0,78,0.00,,SKC,0.00,VWS V14.01,2013-02-25 21:00:00,
2013-02-25 15:05:00,33.0,26.9,30.00,SSW,206,3.0,4.0,78,0.00,,SKC,0.00,VWS V14.01,2013-02-25 21:05:00,
2013-02-25 15:10:00,33.0,26.9,30.00,ESE,123,2.0,2.0,78,0.00,,SKC,0.00,VWS V14.01,2013-02-25 21:10:00,
2013-02-25 15:15:00,32.9,27.1,30.00,West,263,0.0,2.0,79,0.00,,SKC,0.00,VWS V14.01,2013-02-25 21:15:00,
2013-02-25 15:20:00,32.8,27.0,30.00,ESE,123,1.0,2.0,79,0.00,,SKC,0.00,VWS V14.01,2013-02-25 21:20:00,
2013-02-25 15:25:00,32.8,27.0,30.00,SSE,165,0.0,2.0,79,0.00,,SKC,0.00,VWS V14.01,2013-02-25 21:25:00,
2013-02-25 15:30:00,32.8,27.0,30.00,SW,223,0.0,1.0,79,0.00,,SKC,0.00,VWS V14.01,2013-02-25 21:30:00,
2013-02-25 15:35:00,32.9,27.1,30.00,SSW,209,1.0,1.0,79,0.00,,SKC,0.00,VWS V14.01,2013-02-25 21:35:00,
2013-02-25 15:40:00,32.8,27.0,30.00,South,169,0.0,0.0,79,0.00,,SKC,0.00,VWS V14.01,2013-02-25 21:40:00,
2013-02-25 15:45:00,32.8,27.0,30.00,SSW,209,0.0,1.0,79,0.00,,SKC,0.00,VWS V14.01,2013-02-25 21:45:00,
2013-02-25 15:50:00,32.7,26.9,30.00,SSW,211,0.0,1.0,79,0.00,,SKC,0.00,VWS V14.01,2013-02-25 21:50:00,
2013-02-25 15:55:00,32.7,27.2,30.00,SSE,159,0.0,0.0,80,0.00,,SKC,0.00,VWS V14.01,2013-02-25 21:55:00,
2013-02-25 16:00:00,32.6,27.1,30.00,South,175,0.0,1.0,80,0.00,,SKC,0.00,VWS V14.01,2013-02-25 22:00:00,
2013-02-25 16:05:00,32.5,27.0,30.00,ESE,119,1.0,2.0,80,0.00,,SKC,0.00,VWS V14.01,2013-02-25 22:05:00,
2013-02-25 16:10:00,32.5,27.0,30.00,South,184,0.0,1.0,80,0.00,,SKC,0.00,VWS V14.01,2013-02-25 22:10:00,
2013-02-25 16:15:00,32.4,27.2,30.00,SW,222,0.0,1.0,81,0.00,,SKC,0.00,VWS V14.01,2013-02-25 22:15:00,
2013-02-25 16:20:00,32.4,27.2,29.99,ESE,102,1.0,2.0,81,0.00,,SKC,0.00,VWS V14.01,2013-02-25 22:20:00,
2013-02-25 16:25:00,32.3,27.1,29.99,ESE,104,0.0,0.0,81,0.00,,SKC,0.00,VWS V14.01,2013-02-25 22:25:00,
2013-02-25 16:30:00,32.3,27.1,29.99,SSE,148,0.0,2.0,81,0.00,,SKC,0.00,VWS V14.01,2013-02-25 22:30:00,
2013-02-25 16:35:00,32.2,27.0,29.99,SE,138,0.0,1.0,81,0.00,,SKC,0.00,VWS V14.01,2013-02-25 22:35:00,
2013-02-25 16:40:00,32.1,27.2,29.99,SSE,161,0.0,2.0,82,0.00,,SKC,0.00,VWS V14.01,2013-02-25 22:40:00,
2013-02-25 16:45:00,32.1,27.2,29.99,SSE,155,1.0,1.0,82,0.00,,SKC,0.00,VWS V14.01,2013-02-25 22:45:00,
2013-02-25 16:50:00,32.0,27.1,30.00,SSE,159,0.0,0.0,82,0.00,,SKC,0.00,VWS V14.01,2013-02-25 22:50:00,
2013-02-25 16:55:00,32.0,27.4,30.00,WSW,250,0.0,0.0,83,0.00,,SKC,0.00,VWS V14.01,2013-02-25 22:55:00,
2013-02-25 17:00:00,31.9,27.3,30.00,SE,134,0.0,0.0,83,0.00,,SKC,0.00,VWS V14.01,2013-02-25 23:00:00,
2013-02-25 17:05:00,31.0,27.0,30.00,SSE,165,0.0,0.0,85,0.00,,SKC,0.00,VWS V14.01,2013-02-25 23:05:00,
2013-02-25 17:06:00,31.8,27.2,30.00,SE,134,0.0,0.0,83,0.00,,SKC,0.00,VWS V14.01,2013-02-25 23:06:00,
2013-02-25 17:10:00,30.9,26.9,30.00,SSE,165,0.0,0.0,85,0.00,,SKC,0.00,VWS V14.01,2013-02-25 23:10:00,
2013-02-25 17:11:00,31.7,27.1,30.00,South,188,0.0,1.0,83,0.00,,SKC,0.00,VWS V14.01,2013-02-25 23:11:00,
2013-02-25 17:15:00,30.9,26.9,30.00,SSE,165,0.0,0.0,85,0.00,,SKC,0.00,VWS V14.01,2013-02-25 23:15:00,
2013-02-25 17:16:00,31.7,27.4,30.00,South,188,0.0,0.0,84,0.00,,SKC,0.00,VWS V14.01,2013-02-25 23:16:00,
2013-02-25 17:20:00,30.9,26.9,30.00,SSE,165,0.0,0.0,85,0.00,,SKC,0.00,VWS V14.01,2013-02-25 23:20:00,
2013-02-25 17:21:00,31.6,27.3,30.00,South,187,0.0,0.0,84,0.00,,SKC,0.00,VWS V14.01,2013-02-25 23:21:00,
2013-02-25 17:25:00,30.9,26.9,30.00,SSE,165,0.0,0.0,85,0.00,,SKC,0.00,VWS V14.01,2013-02-25 23:25:00,
2013-02-25 17:26:00,31.6,27.3,30.00,SSE,166,0.0,0.0,84,0.00,,SKC,0.00,VWS V14.01,2013-02-25 23:26:00,
2013-02-25 17:30:00,30.9,26.9,30.00,SSE,165,0.0,0.0,85,0.00,,SKC,0.00,VWS V14.01,2013-02-25 23:30:00,
2013-02-25 17:31:00,31.5,27.2,30.00,SSE,165,0.0,0.0,84,0.00,,SKC,0.00,VWS V14.01,2013-02-25 23:31:00,
2013-02-25 17:35:00,30.9,26.9,30.00,SSE,165,0.0,0.0,85,0.00,,SKC,0.00,VWS V14.01,2013-02-25 23:35:00,
2013-02-25 17:36:00,31.4,27.1,30.00,SSE,165,0.0,0.0,84,0.00,,SKC,0.00,VWS V14.01,2013-02-25 23:36:00,
2013-02-25 17:40:00,30.8,26.8,30.00,SSE,165,0.0,0.0,85,0.00,,SKC,0.00,VWS V14.01,2013-02-25 23:40:00,
2013-02-25 17:41:00,31.3,27.0,30.00,SSE,165,0.0,0.0,84,0.00,,SKC,0.00,VWS V14.01,2013-02-25 23:41:00,
2013-02-25 17:45:00,30.8,26.8,30.00,SSE,165,0.0,0.0,85,0.00,,SKC,0.00,VWS V14.01,2013-02-25 23:45:00,
2013-02-25 17:46:00,31.3,27.3,30.00,SSE,165,0.0,0.0,85,0.00,,SKC,0.00,VWS V14.01,2013-02-25 23:46:00,
2013-02-25 17:50:00,30.8,26.8,30.00,SSE,165,0.0,0.0,85,0.00,,SKC,0.00,VWS V14.01,2013-02-25 23:50:00,
2013-02-25 17:51:00,31.2,27.2,30.00,SSE,165,0.0,0.0,85,0.00,,SKC,0.00,VWS V14.01,2013-02-25 23:51:00,
2013-02-25 17:55:00,30.8,26.8,30.00,SSE,165,0.0,0.0,85,0.00,,SKC,0.00,VWS V14.01,2013-02-25 23:55:00,
2013-02-25 17:56:00,31.1,27.1,30.00,SSE,165,0.0,0.0,85,0.00,,SKC,0.00,VWS V14.01,2013-02-25 23:56:00,
2013-02-25 18:00:00,30.7,27.0,30.00,SSE,165,0.0,0.0,86,0.00,,SKC,0.00,VWS V14.01,2013-02-26 00:00:00,
2013-02-25 18:01:00,31.0,27.0,30.00,SSE,165,0.0,0.0,85,0.00,,SKC,0.00,VWS V14.01,2013-02-26 00:01:00,
2013-02-25 18:05:00,30.6,26.9,30.00,SSE,165,0.0,0.0,86,0.00,,SKC,0.00,VWS V14.01,2013-02-26 00:05:00,
2013-02-25 18:06:00,31.0,27.0,30.00,SSE,165,0.0,0.0,85,0.00,,SKC,0.00,VWS V14.01,2013-02-26 00:06:00,
2013-02-25 18:10:00,30.5,26.8,30.00,SSE,165,0.0,0.0,86,0.00,,SKC,0.00,VWS V14.01,2013-02-26 00:10:00,
2013-02-25 18:11:00,30.9,26.9,30.00,SSE,165,0.0,0.0,85,0.00,,SKC,0.00,VWS V14.01,2013-02-26 00:11:00,
2013-02-25 18:15:00,30.4,26.7,30.01,SSE,165,0.0,0.0,86,0.00,,SKC,0.00,VWS V14.01,2013-02-26 00:15:00,
2013-02-25 18:16:00,30.9,26.9,30.00,SSE,165,0.0,0.0,85,0.00,,SKC,0.00,VWS V14.01,2013-02-26 00:16:00,
2013-02-25 18:20:00,30.5,26.8,30.01,SSE,165,0.0,0.0,86,0.00,,SKC,0.00,VWS V14.01,2013-02-26 00:20:00,
2013-02-25 18:21:00,30.9,26.9,30.00,SSE,165,0.0,0.0,85,0.00,,SKC,0.00,VWS V14.01,2013-02-26 00:21:00,
2013-02-25 18:25:00,30.5,27.1,30.01,SSE,165,0.0,0.0,87,0.00,,SKC,0.00,VWS V14.01,2013-02-26 00:25:00,
2013-02-25 18:26:00,30.9,26.9,30.00,SSE,165,0.0,0.0,85,0.00,,SKC,0.00,VWS V14.01,2013-02-26 00:26:00,
2013-02-25 18:30:00,30.3,26.9,30.00,SSE,165,0.0,0.0,87,0.00,,SKC,0.00,VWS V14.01,2013-02-26 00:30:00,
2013-02-25 18:31:00,30.9,26.9,30.00,SSE,165,0.0,0.0,85,0.00,,SKC,0.00,VWS V14.01,2013-02-26 00:31:00,
2013-02-25 18:35:00,30.3,26.9,30.00,SSE,165,0.0,0.0,87,0.00,,SKC,0.00,VWS V14.01,2013-02-26 00:35:00,
2013-02-25 18:36:00,30.9,26.9,30.00,SSE,165,0.0,0.0,85,0.00,,SKC,0.00,VWS V14.01,2013-02-26 00:36:00,
2013-02-25 18:40:00,30.4,27.0,30.00,SSE,165,0.0,0.0,87,0.00,,SKC,0.00,VWS V14.01,2013-02-26 00:40:00,
2013-02-25 18:41:00,30.8,26.8,30.00,SSE,165,0.0,0.0,85,0.00,,SKC,0.00,VWS V14.01,2013-02-26 00:41:00,
2013-02-25 18:45:00,30.4,26.7,30.00,SSE,165,0.0,0.0,86,0.00,,SKC,0.00,VWS V14.01,2013-02-26 00:45:00,
2013-02-25 18:46:00,30.8,26.8,30.00,SSE,165,0.0,0.0,85,0.00,,SKC,0.00,VWS V14.01,2013-02-26 00:46:00,
2013-02-25 18:50:00,30.5,26.8,30.00,SSE,165,0.0,0.0,86,0.00,,SKC,0.00,VWS V14.01,2013-02-26 00:50:00,
2013-02-25 18:51:00,30.8,26.8,30.00,SSE,165,0.0,0.0,85,0.00,,SKC,0.00,VWS V14.01,2013-02-26 00:51:00,
2013-02-25 18:55:00,30.4,26.7,30.00,SSE,165,0.0,0.0,86,0.00,,SKC,0.00,VWS V14.01,2013-02-26 00:55:00,
2013-02-25 18:56:00,30.8,26.8,30.00,SSE,165,0.0,0.0,85,0.00,,SKC,0.00,VWS V14.01,2013-02-26 00:56:00,
2013-02-25 19:00:00,30.4,26.7,30.00,SSE,165,0.0,0.0,86,0.00,,SKC,0.00,VWS V14.01,2013-02-26 01:00:00,
2013-02-25 19:01:00,30.7,26.7,30.00,SSE,165,0.0,0.0,85,0.00,,SKC,0.00,VWS V14.01,2013-02-26 01:01:00,
2013-02-25 19:05:00,30.4,26.7,30.00,SSE,165,0.0,0.0,86,0.00,,SKC,0.00,VWS V14.01,2013-02-26 01:05:00,
2013-02-25 19:06:00,30.6,26.9,30.00,SSE,165,0.0,0.0,86,0.00,,SKC,0.00,VWS V14.01,2013-02-26 01:06:00,
2013-02-25 19:10:00,30.3,26.6,30.00,SSE,165,0.0,0.0,86,0.00,,SKC,0.00,VWS V14.01,2013-02-26 01:10:00,
2013-02-25 19:11:00,30.5,26.8,30.00,SSE,165,0.0,0.0,86,0.00,,SKC,0.00,VWS V14.01,2013-02-26 01:11:00,
2013-02-25 19:15:00,30.2,26.5,30.00,SSE,165,0.0,0.0,86,0.00,,SKC,0.00,VWS V14.01,2013-02-26 01:15:00,
2013-02-25 19:16:00,30.5,26.8,30.01,SSE,165,0.0,0.0,86,0.00,,SKC,0.00,VWS V14.01,2013-02-26 01:16:00,
2013-02-25 19:20:00,30.1,26.7,30.00,SSE,165,0.0,0.0,87,0.00,,SKC,0.00,VWS V14.01,2013-02-26 01:20:00,
2013-02-25 19:21:00,30.5,26.8,30.01,SSE,165,0.0,0.0,86,0.00,,SKC,0.00,VWS V14.01,2013-02-26 01:21:00,
2013-02-25 19:25:00,30.1,26.7,30.00,SSE,165,0.0,0.0,87,0.00,,SKC,0.00,VWS V14.01,2013-02-26 01:25:00,
2013-02-25 19:26:00,30.5,27.1,30.01,SSE,165,0.0,0.0,87,0.00,,SKC,0.00,VWS V14.01,2013-02-26 01:26:00,
2013-02-25 19:30:00,30.0,26.6,30.01,SSE,165,0.0,0.0,87,0.00,,SKC,0.00,VWS V14.01,2013-02-26 01:30:00,
2013-02-25 19:31:00,30.3,26.9,30.00,SSE,165,0.0,0.0,87,0.00,,SKC,0.00,VWS V14.01,2013-02-26 01:31:00,
2013-02-25 19:35:00,29.7,26.3,30.01,SSE,165,0.0,0.0,87,0.00,,SKC,0.00,VWS V14.01,2013-02-26 01:35:00,
2013-02-25 19:36:00,30.3,26.9,30.00,SSE,165,0.0,0.0,87,0.00,,SKC,0.00,VWS V14.01,2013-02-26 01:36:00,
2013-02-25 19:40:00,29.6,26.2,30.01,SSE,165,0.0,0.0,87,0.00,,SKC,0.00,VWS V14.01,2013-02-26 01:40:00,
2013-02-25 19:41:00,30.4,27.0,30.00,SSE,165,0.0,0.0,87,0.00,,SKC,0.00,VWS V14.01,2013-02-26 01:41:00,
2013-02-25 19:45:00,29.3,25.9,30.00,SSE,165,0.0,0.0,87,0.00,,SKC,0.00,VWS V14.01,2013-02-26 01:45:00,
2013-02-25 19:46:00,30.4,26.7,30.00,SSE,165,0.0,0.0,86,0.00,,SKC,0.00,VWS V14.01,2013-02-26 01:46:00,
2013-02-25 19:50:00,29.3,26.2,30.00,SSE,165,0.0,0.0,88,0.00,,SKC,0.00,VWS V14.01,2013-02-26 01:50:00,
2013-02-25 19:51:00,30.4,26.7,30.00,SSE,165,0.0,0.0,86,0.00,,SKC,0.00,VWS V14.01,2013-02-26 01:51:00,
2013-02-25 19:55:00,29.4,26.3,30.00,SSE,165,0.0,0.0,88,0.00,,SKC,0.00,VWS V14.01,2013-02-26 01:55:00,
2013-02-25 19:56:00,30.4,26.7,30.00,SSE,165,0.0,0.0,86,0.00,,SKC,0.00,VWS V14.01,2013-02-26 01:56:00,
2013-02-25 20:00:00,29.6,26.5,30.00,SSE,165,0.0,0.0,88,0.00,,SKC,0.00,VWS V14.01,2013-02-26 02:00:00,
2013-02-25 20:01:00,30.4,26.7,30.00,SSE,165,0.0,0.0,86,0.00,,SKC,0.00,VWS V14.01,2013-02-26 02:01:00,
2013-02-25 20:05:00,29.6,26.5,30.00,SSE,165,0.0,0.0,88,0.00,,SKC,0.00,VWS V14.01,2013-02-26 02:05:00,
2013-02-25 20:06:00,30.4,26.7,30.00,SSE,165,0.0,0.0,86,0.00,,SKC,0.00,VWS V14.01,2013-02-26 02:06:00,
2013-02-25 20:10:00,29.5,26.4,30.00,SSE,166,0.0,0.0,88,0.00,,SKC,0.00,VWS V14.01,2013-02-26 02:10:00,
2013-02-25 20:11:00,30.3,26.6,30.00,SSE,165,0.0,0.0,86,0.00,,SKC,0.00,VWS V14.01,2013-02-26 02:11:00,
2013-02-25 20:15:00,29.4,26.3,30.00,SSE,165,0.0,0.0,88,0.00,,SKC,0.00,VWS V14.01,2013-02-26 02:15:00,
2013-02-25 20:16:00,30.2,26.5,30.00,SSE,165,0.0,0.0,86,0.00,,SKC,0.00,VWS V14.01,2013-02-26 02:16:00,
2013-02-25 20:20:00,29.4,26.3,30.00,SSE,165,0.0,0.0,88,0.00,,SKC,0.00,VWS V14.01,2013-02-26 02:20:00,
2013-02-25 20:21:00,30.1,26.7,30.00,SSE,165,0.0,0.0,87,0.00,,SKC,0.00,VWS V14.01,2013-02-26 02:21:00,
2013-02-25 20:25:00,29.4,26.6,30.00,SSE,165,0.0,0.0,89,0.00,,SKC,0.00,VWS V14.01,2013-02-26 02:25:00,
2013-02-25 20:27:00,30.1,26.7,30.00,SSE,165,0.0,0.0,87,0.00,,SKC,0.00,VWS V14.01,2013-02-26 02:27:00,
2013-02-25 20:30:00,29.4,26.6,30.00,SSE,165,0.0,0.0,89,0.00,,SKC,0.00,VWS V14.01,2013-02-26 02:30:00,
2013-02-25 20:32:00,30.0,26.6,30.01,SSE,165,0.0,0.0,87,0.00,,SKC,0.00,VWS V14.01,2013-02-26 02:32:00,
2013-02-25 20:35:00,29.3,26.5,30.00,SSE,165,0.0,0.0,89,0.00,,SKC,0.00,VWS V14.01,2013-02-26 02:35:00,
2013-02-25 20:37:00,29.8,26.4,30.01,SSE,165,0.0,0.0,87,0.00,,SKC,0.00,VWS V14.01,2013-02-26 02:37:00,
2013-02-25 20:40:00,29.3,26.5,30.00,SSE,165,0.0,0.0,89,0.00,,SKC,0.00,VWS V14.01,2013-02-26 02:40:00,
2013-02-25 20:42:00,29.6,26.2,30.01,SSE,166,0.0,0.0,87,0.00,,SKC,0.00,VWS V14.01,2013-02-26 02:42:00,
2013-02-25 20:45:00,29.2,26.4,30.00,SSE,165,0.0,0.0,89,0.00,,SKC,0.00,VWS V14.01,2013-02-26 02:45:00,
2013-02-25 20:47:00,29.3,25.9,30.00,SSE,165,0.0,0.0,87,0.00,,SKC,0.00,VWS V14.01,2013-02-26 02:47:00,
2013-02-25 20:50:00,29.1,26.3,30.00,SSE,165,0.0,0.0,89,0.00,,SKC,0.00,VWS V14.01,2013-02-26 02:50:00,
2013-02-25 20:52:00,29.3,26.2,30.00,SSE,165,0.0,0.0,88,0.00,,SKC,0.00,VWS V14.01,2013-02-26 02:52:00,
2013-02-25 20:55:00,29.0,26.4,30.00,SSE,165,0.0,0.0,90,0.00,,SKC,0.00,VWS V14.01,2013-02-26 02:55:00,
2013-02-25 20:57:00,29.4,26.3,30.00,SSE,166,0.0,0.0,88,0.00,,SKC,0.00,VWS V14.01,2013-02-26 02:57:00,
2013-02-25 21:00:00,29.0,26.4,29.99,SSE,165,0.0,0.0,90,0.00,,SKC,0.00,VWS V14.01,2013-02-26 03:00:00,
2013-02-25 21:02:00,29.6,26.5,30.00,SSE,165,0.0,0.0,88,0.00,,SKC,0.00,VWS V14.01,2013-02-26 03:02:00,
2013-02-25 21:05:00,28.9,26.3,29.99,SSE,165,0.0,0.0,90,0.00,,SKC,0.00,VWS V14.01,2013-02-26 03:05:00,
2013-02-25 21:07:00,29.6,26.5,30.00,SSE,165,0.0,0.0,88,0.00,,SKC,0.00,VWS V14.01,2013-02-26 03:07:00,
2013-02-25 21:10:00,28.9,26.3,29.99,SSE,165,0.0,0.0,90,0.00,,SKC,0.00,VWS V14.01,2013-02-26 03:10:00,
2013-02-25 21:12:00,29.5,26.4,30.00,SSE,165,0.0,0.0,88,0.00,,SKC,0.00,VWS V14.01,2013-02-26 03:12:00,
2013-02-25 21:15:00,29.0,26.4,30.00,SSE,165,0.0,0.0,90,0.00,,SKC,0.00,VWS V14.01,2013-02-26 03:15:00,
2013-02-25 21:17:00,29.4,26.3,30.00,SSE,165,0.0,0.0,88,0.00,,SKC,0.00,VWS V14.01,2013-02-26 03:17:00,
2013-02-25 21:20:00,29.0,26.4,30.00,SSE,165,0.0,0.0,90,0.00,,SKC,0.00,VWS V14.01,2013-02-26 03:20:00,
2013-02-25 21:22:00,29.4,26.3,30.00,SSE,165,0.0,0.0,88,0.00,,SKC,0.00,VWS V14.01,2013-02-26 03:22:00,
2013-02-25 21:25:00,29.0,26.4,30.00,SSE,165,0.0,0.0,90,0.00,,SKC,0.00,VWS V14.01,2013-02-26 03:25:00,
2013-02-25 21:27:00,29.4,26.6,30.00,SSE,165,0.0,0.0,89,0.00,,SKC,0.00,VWS V14.01,2013-02-26 03:27:00,
2013-02-25 21:30:00,29.0,26.7,29.99,SSE,165,0.0,0.0,91,0.00,,SKC,0.00,VWS V14.01,2013-02-26 03:30:00,
2013-02-25 21:32:00,29.4,26.6,30.00,SSE,165,0.0,0.0,89,0.00,,SKC,0.00,VWS V14.01,2013-02-26 03:32:00,
2013-02-25 21:35:00,29.0,26.4,29.99,SSE,165,0.0,0.0,90,0.00,,SKC,0.00,VWS V14.01,2013-02-26 03:35:00,
2013-02-25 21:37:00,29.3,26.5,30.00,SSE,165,0.0,0.0,89,0.00,,SKC,0.00,VWS V14.01,2013-02-26 03:37:00,
2013-02-25 21:40:00,29.0,26.4,29.99,SSE,166,0.0,0.0,90,0.00,,SKC,0.00,VWS V14.01,2013-02-26 03:40:00,
2013-02-25 21:42:00,29.3,26.5,30.00,SSE,165,0.0,0.0,89,0.00,,SKC,0.00,VWS V14.01,2013-02-26 03:42:00,
2013-02-25 21:45:00,29.0,26.4,29.99,SSE,165,0.0,0.0,90,0.00,,SKC,0.00,VWS V14.01,2013-02-26 03:45:00,
2013-02-25 21:47:00,29.2,26.4,30.00,SSE,165,0.0,0.0,89,0.00,,SKC,0.00,VWS V14.01,2013-02-26 03:47:00,
2013-02-25 21:50:00,29.0,26.4,29.99,SSE,165,0.0,0.0,90,0.00,,SKC,0.00,VWS V14.01,2013-02-26 03:50:00,
2013-02-25 21:52:00,29.1,26.3,30.00,SSE,165,0.0,0.0,89,0.00,,SKC,0.00,VWS V14.01,2013-02-26 03:52:00,
2013-02-25 21:55:00,29.0,26.7,29.99,SSE,165,0.0,0.0,91,0.00,,SKC,0.00,VWS V14.01,2013-02-26 03:55:00,
2013-02-25 21:57:00,29.0,26.4,30.00,SSE,165,0.0,0.0,90,0.00,,SKC,0.00,VWS V14.01,2013-02-26 03:57:00,
2013-02-25 22:00:00,28.9,26.6,30.00,SSE,165,0.0,0.0,91,0.00,,SKC,0.00,VWS V14.01,2013-02-26 04:00:00,
2013-02-25 22:02:00,29.0,26.4,29.99,SSE,165,0.0,0.0,90,0.00,,SKC,0.00,VWS V14.01,2013-02-26 04:02:00,
2013-02-25 22:05:00,28.8,26.5,30.00,SSE,165,0.0,0.0,91,0.00,,SKC,0.00,VWS V14.01,2013-02-26 04:05:00,
2013-02-25 22:07:00,28.9,26.3,29.99,SSE,165,0.0,0.0,90,0.00,,SKC,0.00,VWS V14.01,2013-02-26 04:07:00,
2013-02-25 22:10:00,28.8,26.5,30.00,SSE,165,0.0,0.0,91,0.00,,SKC,0.00,VWS V14.01,2013-02-26 04:10:00,
2013-02-25 22:12:00,28.9,26.3,29.99,SSE,165,0.0,0.0,90,0.00,,SKC,0.00,VWS V14.01,2013-02-26 04:12:00,
2013-02-25 22:15:00,28.7,26.4,30.00,SSE,165,0.0,0.0,91,0.00,,SKC,0.00,VWS V14.01,2013-02-26 04:15:00,
2013-02-25 22:17:00,29.0,26.4,30.00,SSE,165,0.0,0.0,90,0.00,,SKC,0.00,VWS V14.01,2013-02-26 04:17:00,
2013-02-25 22:20:00,28.7,26.4,30.00,SSE,165,0.0,0.0,91,0.00,,SKC,0.00,VWS V14.01,2013-02-26 04:20:00,
2013-02-25 22:22:00,29.0,26.4,30.00,SSE,165,0.0,0.0,90,0.00,,SKC,0.00,VWS V14.01,2013-02-26 04:22:00,
2013-02-25 22:25:00,28.6,26.3,30.00,SSE,165,0.0,0.0,91,0.00,,SKC,0.00,VWS V14.01,2013-02-26 04:25:00,
2013-02-25 22:27:00,29.0,26.4,30.00,SSE,165,0.0,0.0,90,0.00,,SKC,0.00,VWS V14.01,2013-02-26 04:27:00,
2013-02-25 22:30:00,28.6,26.3,30.01,SSE,165,0.0,0.0,91,0.00,,SKC,0.00,VWS V14.01,2013-02-26 04:30:00,
2013-02-25 22:32:00,29.0,26.7,29.99,SSE,165,0.0,0.0,91,0.00,,SKC,0.00,VWS V14.01,2013-02-26 04:32:00,
2013-02-25 22:35:00,28.6,26.3,30.01,SSE,166,0.0,0.0,91,0.00,,SKC,0.00,VWS V14.01,2013-02-26 04:35:00,
2013-02-25 22:37:00,29.0,26.4,29.99,SSE,165,0.0,0.0,90,0.00,,SKC,0.00,VWS V14.01,2013-02-26 04:37:00,
2013-02-25 22:40:00,28.6,26.3,30.01,SSE,165,0.0,0.0,91,0.00,,SKC,0.00,VWS V14.01,2013-02-26 04:40:00,
2013-02-25 22:42:00,29.0,26.4,29.99,SSE,166,0.0,0.0,90,0.00,,SKC,0.00,VWS V14.01,2013-02-26 04:42:00,
2013-02-25 22:45:00,28.6,26.3,30.01,SSE,165,0.0,0.0,91,0.00,,SKC,0.00,VWS V14.01,2013-02-26 04:45:00,
2013-02-25 22:47:00,29.0,26.4,29.99,SSE,165,0.0,0.0,90,0.00,,SKC,0.00,VWS V14.01,2013-02-26 04:47:00,
2013-02-25 22:50:00,28.7,26.4,30.01,SSE,165,0.0,0.0,91,0.00,,SKC,0.00,VWS V14.01,2013-02-26 04:50:00,
2013-02-25 22:52:00,29.0,26.4,29.99,SSE,165,0.0,0.0,90,0.00,,SKC,0.00,VWS V14.01,2013-02-26 04:52:00,
2013-02-25 22:55:00,28.6,26.3,30.01,SSE,165,0.0,0.0,91,0.00,,SKC,0.00,VWS V14.01,2013-02-26 04:55:00,
2013-02-25 22:57:00,29.0,26.7,29.99,SSE,165,0.0,0.0,91,0.00,,SKC,0.00,VWS V14.01,2013-02-26 04:57:00,
2013-02-25 23:00:00,29.0,26.7,29.99,SSE,165,0.0,0.0,91,0.00,,SKC,0.00,VWS V14.01,2013-02-26 05:00:00,
2013-02-25 23:05:00,28.9,26.6,30.00,SSE,165,0.0,0.0,91,0.00,,SKC,0.00,VWS V14.01,2013-02-26 05:05:00,
2013-02-25 23:10:00,28.8,26.5,30.00,SSE,165,0.0,0.0,91,0.00,,SKC,0.00,VWS V14.01,2013-02-26 05:10:00,
2013-02-25 23:15:00,28.7,26.4,30.00,SSE,165,0.0,0.0,91,0.00,,SKC,0.00,VWS V14.01,2013-02-26 05:15:00,
2013-02-25 23:20:00,28.7,26.4,30.00,SSE,165,0.0,0.0,91,0.00,,SKC,0.00,VWS V14.01,2013-02-26 05:20:00,
2013-02-25 23:25:00,28.7,26.4,30.00,SSE,165,0.0,0.0,91,0.00,,SKC,0.00,VWS V14.01,2013-02-26 05:25:00,
2013-02-25 23:30:00,28.6,26.3,30.00,SSE,165,0.0,0.0,91,0.00,,SKC,0.00,VWS V14.01,2013-02-26 05:30:00,
2013-02-25 23:35:00,28.6,26.3,30.01,SSE,165,0.0,0.0,91,0.00,,SKC,0.00,VWS V14.01,2013-02-26 05:35:00,
2013-02-25 23:40:00,28.6,26.3,30.01,SSE,165,0.0,0.0,91,0.00,,SKC,0.00,VWS V14.01,2013-02-26 05:40:00,
2013-02-25 23:45:00,28.6,26.3,30.01,SSE,165,0.0,0.0,91,0.00,,SKC,0.00,VWS V14.01,2013-02-26 05:45:00,
2013-02-25 23:50:00,28.6,26.3,30.01,SSE,165,0.0,0.0,91,0.00,,SKC,0.00,VWS V14.01,2013-02-26 05:50:00,
2013-02-25 23:55:00,27.5,25.2,30.00,SSE,165,0.0,0.0,91,0.00,,SKC,0.00,VWS V14.01,2013-02-26 05:55:00,
2013-02-25 23:56:00,28.6,26.3,30.01,SSE,165,0.0,0.0,91,0.00,,SKC,0.00,VWS V14.01,2013-02-26 05:56:00,